createdAt,value
2017-06-24T00:01:10.141Z,1008.35
2017-06-24T00:02:10.073Z,1008.3
2017-06-24T00:03:10.010Z,1008.29
2017-06-24T00:04:09.949Z,1008.28
2017-06-24T00:05:09.886Z,1008.27
2017-06-24T00:06:09.826Z,1008.26
2017-06-24T00:07:09.763Z,1008.27
2017-06-24T00:08:09.700Z,1008.26
2017-06-24T00:09:09.640Z,1008.29
2017-06-24T00:10:09.582Z,1008.34
2017-06-24T00:11:09.516Z,1008.39
2017-06-24T00:12:09.454Z,1008.43
2017-06-24T00:13:09.392Z,1008.45
2017-06-24T00:14:09.330Z,1008.42
2017-06-24T00:15:09.268Z,1008.41
2017-06-24T00:16:09.207Z,1008.44
2017-06-24T00:17:09.144Z,1008.48
2017-06-24T00:18:09.083Z,1008.53
2017-06-24T00:19:09.020Z,1008.5
2017-06-24T00:20:08.959Z,1008.53
2017-06-24T00:21:08.897Z,1008.52
2017-06-24T00:22:08.835Z,1008.5
2017-06-24T00:23:08.774Z,1008.48
2017-06-24T00:24:08.711Z,1008.41
2017-06-24T00:25:08.650Z,1008.43
2017-06-24T00:26:08.586Z,1008.46
2017-06-24T00:27:08.524Z,1008.46
2017-06-24T00:28:08.465Z,1008.45
2017-06-24T00:29:08.401Z,1008.43
2017-06-24T00:30:08.338Z,1008.35
2017-06-24T00:31:08.280Z,1008.31
2017-06-24T00:32:08.215Z,1008.32
2017-06-24T00:33:08.154Z,1008.3
2017-06-24T00:34:08.092Z,1008.28
2017-06-24T00:35:08.030Z,1008.29
2017-06-24T00:36:07.969Z,1008.35
2017-06-24T00:37:07.907Z,1008.37
2017-06-24T00:38:07.845Z,1008.33
2017-06-24T00:39:07.781Z,1008.41
2017-06-24T00:40:07.722Z,1008.4
2017-06-24T00:41:07.657Z,1008.47
2017-06-24T00:42:07.596Z,1008.49
2017-06-24T00:43:07.537Z,1008.44
2017-06-24T00:44:07.473Z,1008.35
2017-06-24T00:45:07.409Z,1008.41
2017-06-24T00:46:07.349Z,1008.42
2017-06-24T00:47:07.288Z,1008.43
2017-06-24T00:48:07.225Z,1008.42
2017-06-24T00:49:07.163Z,1008.47
2017-06-24T00:50:07.350Z,1008.49
2017-06-24T00:51:07.040Z,1008.41
2017-06-24T00:52:06.976Z,1008.37
2017-06-24T00:53:06.914Z,1008.34
2017-06-24T00:54:06.853Z,1008.38
2017-06-24T00:55:06.796Z,1008.36
2017-06-24T00:56:06.730Z,1008.36
2017-06-24T00:57:06.668Z,1008.33
2017-06-24T00:58:06.606Z,1008.32
2017-06-24T00:59:06.542Z,1008.27
2017-06-24T01:00:06.482Z,1008.24
2017-06-24T01:01:06.420Z,1008.26
2017-06-24T01:02:06.358Z,1008.26
2017-06-24T01:03:06.297Z,1008.23
2017-06-24T01:04:06.234Z,1008.26
2017-06-24T01:05:06.172Z,1008.26
2017-06-24T01:06:06.109Z,1008.31
2017-06-24T01:07:06.047Z,1008.31
2017-06-24T01:08:06.002Z,1008.31
2017-06-24T01:09:05.924Z,1008.3
2017-06-24T01:10:05.862Z,1008.31
2017-06-24T01:11:05.802Z,1008.32
2017-06-24T01:12:05.740Z,1008.3
2017-06-24T01:13:05.679Z,1008.25
2017-06-24T01:14:05.613Z,1008.23
2017-06-24T01:15:05.552Z,1008.19
2017-06-24T01:16:05.492Z,1008.23
2017-06-24T01:17:05.429Z,1008.27
2017-06-24T01:18:05.367Z,1008.3
2017-06-24T01:19:05.304Z,1008.27
2017-06-24T01:20:05.244Z,1008.26
2017-06-24T01:21:05.182Z,1008.24
2017-06-24T01:22:05.121Z,1008.25
2017-06-24T01:23:05.059Z,1008.24
2017-06-24T01:24:04.996Z,1008.25
2017-06-24T01:25:04.932Z,1008.28
2017-06-24T01:26:04.872Z,1008.28
2017-06-24T01:27:04.810Z,1008.24
2017-06-24T01:28:04.747Z,1008.26
2017-06-24T01:29:04.686Z,1008.28
2017-06-24T01:30:04.624Z,1008.28
2017-06-24T01:31:04.563Z,1008.23
2017-06-24T01:32:04.501Z,1008.31
2017-06-24T01:33:04.437Z,1008.27
2017-06-24T01:34:04.376Z,1008.2
2017-06-24T01:35:04.314Z,1008.2
2017-06-24T01:36:04.253Z,1008.16
2017-06-24T01:37:04.192Z,1008.17
2017-06-24T01:38:04.130Z,1008.17
2017-06-24T01:39:04.068Z,1008.16
2017-06-24T01:40:04.006Z,1008.14
2017-06-24T01:41:03.945Z,1008.15
2017-06-24T01:42:03.883Z,1008.15
2017-06-24T01:43:03.821Z,1008.12
2017-06-24T01:44:03.757Z,1008.13
2017-06-24T01:45:03.695Z,1008.1
2017-06-24T01:46:03.633Z,1008.14
2017-06-24T01:47:03.571Z,1008.08
2017-06-24T01:48:03.511Z,1008.04
2017-06-24T01:49:03.449Z,1008.03
2017-06-24T01:50:03.386Z,1008.05
2017-06-24T01:51:03.323Z,1008.06
2017-06-24T01:52:03.262Z,1008.04
2017-06-24T01:53:03.201Z,1008.05
2017-06-24T01:54:03.142Z,1008.02
2017-06-24T01:55:03.077Z,1008
2017-06-24T01:56:03.016Z,1007.98
2017-06-24T01:57:02.952Z,1007.94
2017-06-24T01:58:02.891Z,1007.96
2017-06-24T01:59:02.830Z,1007.96
2017-06-24T02:00:02.767Z,1008
2017-06-24T02:01:02.704Z,1007.94
2017-06-24T02:02:02.643Z,1007.99
2017-06-24T02:03:02.582Z,1007.97
2017-06-24T02:04:02.519Z,1007.93
2017-06-24T02:05:02.459Z,1007.94
2017-06-24T02:06:02.396Z,1007.94
2017-06-24T02:07:02.334Z,1007.98
2017-06-24T02:08:02.271Z,1007.94
2017-06-24T02:09:02.210Z,1007.95
2017-06-24T02:10:02.149Z,1007.9
2017-06-24T02:11:02.087Z,1007.94
2017-06-24T02:12:02.024Z,1007.92
2017-06-24T02:13:01.960Z,1007.97
2017-06-24T02:14:01.905Z,1007.95
2017-06-24T02:15:01.837Z,1007.96
2017-06-24T02:16:01.776Z,1007.98
2017-06-24T02:17:01.714Z,1007.96
2017-06-24T02:18:01.652Z,1008
2017-06-24T02:19:01.591Z,1008
2017-06-24T02:20:01.528Z,1008.05
2017-06-24T02:21:01.466Z,1008.03
2017-06-24T02:22:01.405Z,1008.03
2017-06-24T02:23:01.343Z,1008.01
2017-06-24T02:24:01.282Z,1007.99
2017-06-24T02:25:01.219Z,1008
2017-06-24T02:26:01.158Z,1007.99
2017-06-24T02:27:01.095Z,1008
2017-06-24T02:28:01.033Z,1008.03
2017-06-24T02:29:00.971Z,1008.04
2017-06-24T02:30:00.907Z,1007.97
2017-06-24T02:31:00.847Z,1008.01
2017-06-24T02:32:00.793Z,1007.98
2017-06-24T02:33:00.724Z,1007.96
2017-06-24T02:34:00.662Z,1007.99
2017-06-24T02:35:00.599Z,1007.95
2017-06-24T02:36:00.537Z,1007.97
2017-06-24T02:37:00.475Z,1007.92
2017-06-24T02:38:00.415Z,1007.94
2017-06-24T02:39:00.350Z,1007.97
2017-06-24T02:40:00.290Z,1007.95
2017-06-24T02:41:00.228Z,1007.93
2017-06-24T02:42:00.164Z,1007.89
2017-06-24T02:43:00.103Z,1007.92
2017-06-24T02:44:00.043Z,1007.93
2017-06-24T02:44:59.979Z,1007.91
2017-06-24T02:45:59.918Z,1007.93
2017-06-24T02:46:59.856Z,1007.92
2017-06-24T02:47:59.792Z,1007.92
2017-06-24T02:48:59.731Z,1007.95
2017-06-24T02:49:59.670Z,1007.93
2017-06-24T02:50:59.608Z,1007.92
2017-06-24T02:51:59.544Z,1007.91
2017-06-24T02:52:59.482Z,1007.93
2017-06-24T02:53:59.422Z,1007.92
2017-06-24T02:54:59.358Z,1007.98
2017-06-24T02:55:59.296Z,1008.03
2017-06-24T02:56:59.234Z,1007.99
2017-06-24T02:57:59.173Z,1008.02
2017-06-24T02:58:59.138Z,1007.97
2017-06-24T02:59:59.049Z,1007.95
2017-06-24T03:00:58.987Z,1007.93
2017-06-24T03:01:58.926Z,1007.98
2017-06-24T03:02:58.877Z,1008
2017-06-24T03:03:58.802Z,1007.98
2017-06-24T03:04:58.739Z,1008.01
2017-06-24T03:05:58.676Z,1008
2017-06-24T03:06:58.616Z,1008.02
2017-06-24T03:07:58.554Z,1008.08
2017-06-24T03:08:58.491Z,1008.07
2017-06-24T03:09:58.431Z,1008.06
2017-06-24T03:10:58.369Z,1008.07
2017-06-24T03:11:58.307Z,1008.08
2017-06-24T03:12:58.245Z,1008
2017-06-24T03:13:58.183Z,1008.01
2017-06-24T03:14:58.119Z,1008.02
2017-06-24T03:15:58.059Z,1008.01
2017-06-24T03:16:57.998Z,1008.04
2017-06-24T03:17:57.935Z,1007.99
2017-06-24T03:18:57.873Z,1007.99
2017-06-24T03:19:57.812Z,1007.98
2017-06-24T03:20:57.748Z,1007.97
2017-06-24T03:21:57.687Z,1007.98
2017-06-24T03:22:57.629Z,1008.01
2017-06-24T03:23:57.564Z,1008.03
2017-06-24T03:24:57.501Z,1008.01
2017-06-24T03:25:57.439Z,1007.98
2017-06-24T03:26:57.377Z,1007.93
2017-06-24T03:27:57.314Z,1007.95
2017-06-24T03:28:57.252Z,1007.98
2017-06-24T03:29:57.191Z,1008.01
2017-06-24T03:30:57.130Z,1008
2017-06-24T03:31:57.067Z,1008.01
2017-06-24T03:32:57.005Z,1007.96
2017-06-24T03:33:56.944Z,1008
2017-06-24T03:34:56.881Z,1007.96
2017-06-24T03:35:56.819Z,1008.02
2017-06-24T03:36:56.757Z,1008
2017-06-24T03:37:56.695Z,1007.98
2017-06-24T03:38:56.634Z,1007.98
2017-06-24T03:39:56.573Z,1007.99
2017-06-24T03:40:56.511Z,1008
2017-06-24T03:41:56.459Z,1008
2017-06-24T03:42:56.385Z,1007.98
2017-06-24T03:43:56.327Z,1008.01
2017-06-24T03:44:56.261Z,1007.96
2017-06-24T03:45:56.200Z,1007.97
2017-06-24T03:46:56.137Z,1008.01
2017-06-24T03:47:56.075Z,1008.02
2017-06-24T03:48:56.014Z,1008.11
2017-06-24T03:49:55.951Z,1008.17
2017-06-24T03:50:55.889Z,1008.21
2017-06-24T03:51:55.827Z,1008.05
2017-06-24T03:52:55.766Z,1008.08
2017-06-24T03:53:55.704Z,1008.07
2017-06-24T03:54:55.641Z,1008.11
2017-06-24T03:55:55.580Z,1008.12
2017-06-24T03:56:55.518Z,1008.15
2017-06-24T03:57:55.455Z,1008.16
2017-06-24T03:58:55.393Z,1008.17
2017-06-24T03:59:55.331Z,1008.2
2017-06-24T04:00:55.271Z,1008.26
2017-06-24T04:01:55.206Z,1008.29
2017-06-24T04:02:55.144Z,1008.23
2017-06-24T04:03:55.084Z,1008.23
2017-06-24T04:04:55.020Z,1008.23
2017-06-24T04:05:54.959Z,1008.2
2017-06-24T04:06:54.896Z,1008.19
2017-06-24T04:07:54.833Z,1008.23
2017-06-24T04:08:54.770Z,1008.24
2017-06-24T04:09:54.708Z,1008.22
2017-06-24T04:10:54.649Z,1008.24
2017-06-24T04:11:54.585Z,1008.26
2017-06-24T04:12:54.522Z,1008.21
2017-06-24T04:13:54.461Z,1008.27
2017-06-24T04:14:54.399Z,1008.27
2017-06-24T04:15:54.337Z,1008.25
2017-06-24T04:16:54.274Z,1008.23
2017-06-24T04:17:54.212Z,1008.25
2017-06-24T04:18:54.151Z,1008.29
2017-06-24T04:19:54.088Z,1008.34
2017-06-24T04:20:54.027Z,1008.32
2017-06-24T04:21:53.972Z,1008.35
2017-06-24T04:22:53.901Z,1008.38
2017-06-24T04:23:53.843Z,1008.32
2017-06-24T04:24:53.776Z,1008.33
2017-06-24T04:25:53.714Z,1008.33
2017-06-24T04:26:53.652Z,1008.31
2017-06-24T04:27:53.588Z,1008.36
2017-06-24T04:28:53.526Z,1008.38
2017-06-24T04:29:53.464Z,1008.43
2017-06-24T04:30:53.403Z,1008.44
2017-06-24T04:31:53.341Z,1008.39
2017-06-24T04:32:53.278Z,1008.4
2017-06-24T04:33:53.216Z,1008.36
2017-06-24T04:34:53.154Z,1008.32
2017-06-24T04:35:53.093Z,1008.33
2017-06-24T04:36:53.029Z,1008.34
2017-06-24T04:37:52.965Z,1008.37
2017-06-24T04:38:52.903Z,1008.35
2017-06-24T04:39:52.841Z,1008.36
2017-06-24T04:40:52.779Z,1008.34
2017-06-24T04:41:52.715Z,1008.36
2017-06-24T04:42:52.654Z,1008.33
2017-06-24T04:43:52.592Z,1008.36
2017-06-24T04:44:52.529Z,1008.35
2017-06-24T04:45:52.467Z,1008.36
2017-06-24T04:46:52.405Z,1008.37
2017-06-24T04:47:52.342Z,1008.31
2017-06-24T04:48:52.278Z,1008.3
2017-06-24T04:49:52.217Z,1008.25
2017-06-24T04:50:52.154Z,1008.26
2017-06-24T04:51:52.092Z,1008.29
2017-06-24T04:52:52.030Z,1008.29
2017-06-24T04:53:51.968Z,1008.27
2017-06-24T04:54:51.906Z,1008.27
2017-06-24T04:55:51.841Z,1008.24
2017-06-24T04:56:51.781Z,1008.21
2017-06-24T04:57:51.717Z,1008.17
2017-06-24T04:58:51.656Z,1008.17
2017-06-24T04:59:51.592Z,1008.16
2017-06-24T05:00:51.530Z,1008.13
2017-06-24T05:01:51.469Z,1008.12
2017-06-24T05:02:51.404Z,1008.1
2017-06-24T05:03:51.342Z,1008.1
2017-06-24T05:04:51.281Z,1008.09
2017-06-24T05:05:51.217Z,1008.07
2017-06-24T05:06:51.154Z,1008.02
2017-06-24T05:07:51.093Z,1008.04
2017-06-24T05:08:51.030Z,1008.05
2017-06-24T05:09:50.967Z,1008.03
2017-06-24T05:10:50.904Z,1008.07
2017-06-24T05:11:50.842Z,1008.09
2017-06-24T05:12:50.780Z,1008.09
2017-06-24T05:13:50.716Z,1008.1
2017-06-24T05:14:50.655Z,1008.15
2017-06-24T05:15:50.741Z,1008.09
2017-06-24T05:16:50.530Z,1008.17
2017-06-24T05:17:50.465Z,1008.17
2017-06-24T05:18:50.404Z,1008.15
2017-06-24T05:19:50.342Z,1008.15
2017-06-24T05:20:50.280Z,1008.14
2017-06-24T05:21:50.215Z,1008.16
2017-06-24T05:22:50.154Z,1008.14
2017-06-24T05:23:50.092Z,1008.15
2017-06-24T05:24:50.028Z,1008.18
2017-06-24T05:25:49.965Z,1008.14
2017-06-24T05:26:49.903Z,1008.11
2017-06-24T05:27:49.840Z,1008.14
2017-06-24T05:28:49.777Z,1008.15
2017-06-24T05:29:49.714Z,1008.13
2017-06-24T05:30:49.651Z,1008.12
2017-06-24T05:31:49.590Z,1008.14
2017-06-24T05:32:49.527Z,1008.12
2017-06-24T05:33:49.464Z,1008.15
2017-06-24T05:34:49.402Z,1008.12
2017-06-24T05:35:49.339Z,1008.06
2017-06-24T05:36:49.276Z,1008.07
2017-06-24T05:37:49.214Z,1008.06
2017-06-24T05:38:49.151Z,1008.07
2017-06-24T05:39:49.088Z,1008.06
2017-06-24T05:40:49.025Z,1008.01
2017-06-24T05:41:48.962Z,1007.98
2017-06-24T05:42:48.900Z,1007.93
2017-06-24T05:43:48.844Z,1007.92
2017-06-24T05:44:48.775Z,1007.94
2017-06-24T05:45:48.712Z,1008
2017-06-24T05:46:48.650Z,1007.99
2017-06-24T05:47:48.586Z,1008.05
2017-06-24T05:48:48.523Z,1008.09
2017-06-24T05:49:48.461Z,1008.06
2017-06-24T05:50:48.399Z,1008.05
2017-06-24T05:51:48.337Z,1008.04
2017-06-24T05:52:48.275Z,1008.02
2017-06-24T05:53:48.210Z,1008.02
2017-06-24T05:54:48.147Z,1008.01
2017-06-24T05:55:48.083Z,1008.05
2017-06-24T05:56:48.022Z,1008.04
2017-06-24T05:57:47.958Z,1008.03
2017-06-24T05:58:47.896Z,1008.05
2017-06-24T05:59:47.833Z,1008.05
2017-06-24T06:00:47.924Z,1008.02
2017-06-24T06:01:47.708Z,1008.02
2017-06-24T06:02:47.644Z,1008
2017-06-24T06:03:47.586Z,1007.96
2017-06-24T06:04:47.519Z,1008
2017-06-24T06:05:47.456Z,1007.94
2017-06-24T06:06:47.392Z,1007.96
2017-06-24T06:07:47.331Z,1007.96
2017-06-24T06:08:47.269Z,1007.98
2017-06-24T06:09:47.205Z,1007.97
2017-06-24T06:10:47.168Z,1007.96
2017-06-24T06:11:47.080Z,1007.92
2017-06-24T06:12:47.016Z,1007.93
2017-06-24T06:13:46.953Z,1007.95
2017-06-24T06:14:46.893Z,1007.96
2017-06-24T06:15:46.829Z,1007.94
2017-06-24T06:16:46.764Z,1007.91
2017-06-24T06:17:46.703Z,1007.96
2017-06-24T06:18:46.639Z,1007.92
2017-06-24T06:19:46.577Z,1007.94
2017-06-24T06:20:46.516Z,1007.93
2017-06-24T06:21:46.453Z,1007.93
2017-06-24T06:22:46.390Z,1007.96
2017-06-24T06:23:46.325Z,1007.93
2017-06-24T06:24:46.263Z,1007.94
2017-06-24T06:25:46.200Z,1007.95
2017-06-24T06:26:46.157Z,1007.98
2017-06-24T06:27:46.074Z,1007.99
2017-06-24T06:28:46.021Z,1007.96
2017-06-24T06:29:45.949Z,1007.97
2017-06-24T06:30:45.886Z,1007.95
2017-06-24T06:31:45.823Z,1008
2017-06-24T06:32:45.760Z,1008
2017-06-24T06:33:45.698Z,1008.04
2017-06-24T06:34:45.633Z,1007.98
2017-06-24T06:35:45.572Z,1008.02
2017-06-24T06:36:45.510Z,1008.06
2017-06-24T06:37:45.447Z,1008.03
2017-06-24T06:38:45.383Z,1008.02
2017-06-24T06:39:45.331Z,1008.01
2017-06-24T06:40:45.257Z,1007.99
2017-06-24T06:41:45.193Z,1007.95
2017-06-24T06:42:45.134Z,1007.98
2017-06-24T06:43:45.067Z,1007.9
2017-06-24T06:44:45.005Z,1007.91
2017-06-24T06:45:45.091Z,1007.84
2017-06-24T06:46:44.884Z,1007.87
2017-06-24T06:47:44.816Z,1007.87
2017-06-24T06:48:44.753Z,1007.84
2017-06-24T06:49:44.691Z,1007.8
2017-06-24T06:50:44.626Z,1007.82
2017-06-24T06:51:44.566Z,1007.85
2017-06-24T06:52:44.501Z,1007.86
2017-06-24T06:53:44.438Z,1007.86
2017-06-24T06:54:44.375Z,1007.85
2017-06-24T06:55:44.314Z,1007.83
2017-06-24T06:56:44.251Z,1007.79
2017-06-24T06:57:44.187Z,1007.8
2017-06-24T06:58:44.125Z,1007.81
2017-06-24T06:59:44.061Z,1007.82
2017-06-24T07:00:44.435Z,1007.83
2017-06-24T07:01:43.936Z,1007.84
2017-06-24T07:02:43.873Z,1007.85
2017-06-24T07:03:43.810Z,1007.89
2017-06-24T07:04:43.746Z,1007.93
2017-06-24T07:05:43.683Z,1007.94
2017-06-24T07:06:43.621Z,1007.95
2017-06-24T07:07:43.558Z,1007.98
2017-06-24T07:08:43.495Z,1007.95
2017-06-24T07:09:43.433Z,1007.94
2017-06-24T07:10:43.371Z,1007.92
2017-06-24T07:11:43.306Z,1007.95
2017-06-24T07:12:43.242Z,1007.98
2017-06-24T07:13:43.181Z,1007.95
2017-06-24T07:14:43.118Z,1007.93
2017-06-24T07:15:43.054Z,1007.94
2017-06-24T07:16:42.992Z,1007.96
2017-06-24T07:17:42.929Z,1007.93
2017-06-24T07:18:42.865Z,1007.95
2017-06-24T07:19:42.801Z,1007.95
2017-06-24T07:20:42.747Z,1007.94
2017-06-24T07:21:42.677Z,1007.92
2017-06-24T07:22:42.613Z,1007.89
2017-06-24T07:23:42.549Z,1007.89
2017-06-24T07:24:42.486Z,1007.91
2017-06-24T07:25:42.422Z,1007.91
2017-06-24T07:26:42.360Z,1007.91
2017-06-24T07:27:42.299Z,1007.89
2017-06-24T07:28:42.236Z,1007.89
2017-06-24T07:29:42.172Z,1007.88
2017-06-24T07:30:42.109Z,1007.91
2017-06-24T07:31:42.045Z,1007.91
2017-06-24T07:32:41.988Z,1007.93
2017-06-24T07:33:41.919Z,1007.96
2017-06-24T07:34:41.857Z,1007.94
2017-06-24T07:35:41.795Z,1007.94
2017-06-24T07:36:41.730Z,1007.96
2017-06-24T07:37:41.666Z,1007.95
2017-06-24T07:38:41.604Z,1007.96
2017-06-24T07:39:41.542Z,1007.9
2017-06-24T07:40:41.477Z,1007.87
2017-06-24T07:41:41.417Z,1007.89
2017-06-24T07:42:41.352Z,1007.9
2017-06-24T07:43:41.291Z,1007.93
2017-06-24T07:44:41.225Z,1007.89
2017-06-24T07:45:41.164Z,1007.88
2017-06-24T07:46:41.101Z,1007.87
2017-06-24T07:47:41.038Z,1007.9
2017-06-24T07:48:40.974Z,1007.92
2017-06-24T07:49:40.912Z,1007.89
2017-06-24T07:50:40.849Z,1007.87
2017-06-24T07:51:40.785Z,1007.89
2017-06-24T07:52:40.722Z,1007.86
2017-06-24T07:53:40.670Z,1007.87
2017-06-24T07:54:40.611Z,1007.82
2017-06-24T07:55:40.535Z,1007.83
2017-06-24T07:56:40.472Z,1007.81
2017-06-24T07:57:40.409Z,1007.83
2017-06-24T07:58:40.344Z,1007.76
2017-06-24T07:59:40.283Z,1007.8
2017-06-24T08:00:40.220Z,1007.8
2017-06-24T08:01:40.156Z,1007.77
2017-06-24T08:02:40.092Z,1007.79
2017-06-24T08:03:40.032Z,1007.75
2017-06-24T08:04:39.967Z,1007.76
2017-06-24T08:05:39.902Z,1007.77
2017-06-24T08:06:39.839Z,1007.75
2017-06-24T08:07:39.778Z,1007.8
2017-06-24T08:08:39.715Z,1007.79
2017-06-24T08:09:39.649Z,1007.8
2017-06-24T08:10:39.587Z,1007.79
2017-06-24T08:11:39.524Z,1007.75
2017-06-24T08:12:39.461Z,1007.75
2017-06-24T08:13:39.399Z,1007.79
2017-06-24T08:14:39.336Z,1007.74
2017-06-24T08:15:39.273Z,1007.69
2017-06-24T08:16:39.209Z,1007.69
2017-06-24T08:17:39.145Z,1007.7
2017-06-24T08:18:39.083Z,1007.7
2017-06-24T08:19:39.019Z,1007.71
2017-06-24T08:20:38.957Z,1007.7
2017-06-24T08:21:38.893Z,1007.67
2017-06-24T08:22:38.831Z,1007.68
2017-06-24T08:23:38.777Z,1007.67
2017-06-24T08:24:38.704Z,1007.68
2017-06-24T08:25:38.641Z,1007.71
2017-06-24T08:26:38.578Z,1007.69
2017-06-24T08:27:38.513Z,1007.7
2017-06-24T08:28:38.451Z,1007.72
2017-06-24T08:29:38.389Z,1007.71
2017-06-24T08:30:38.327Z,1007.67
2017-06-24T08:31:38.262Z,1007.69
2017-06-24T08:32:38.201Z,1007.71
2017-06-24T08:33:38.138Z,1007.68
2017-06-24T08:34:38.072Z,1007.7
2017-06-24T08:35:38.012Z,1007.73
2017-06-24T08:36:37.948Z,1007.71
2017-06-24T08:37:37.883Z,1007.7
2017-06-24T08:38:37.819Z,1007.69
2017-06-24T08:39:37.757Z,1007.7
2017-06-24T08:40:37.693Z,1007.69
2017-06-24T08:41:37.632Z,1007.71
2017-06-24T08:42:37.567Z,1007.7
2017-06-24T08:43:37.504Z,1007.73
2017-06-24T08:44:37.441Z,1007.68
2017-06-24T08:45:37.530Z,1007.73
2017-06-24T08:46:37.315Z,1007.72
2017-06-24T08:47:37.252Z,1007.75
2017-06-24T08:48:37.188Z,1007.76
2017-06-24T08:49:37.125Z,1007.77
2017-06-24T08:50:37.063Z,1007.73
2017-06-24T08:51:37.000Z,1007.75
2017-06-24T08:52:36.935Z,1007.69
2017-06-24T08:53:36.874Z,1007.69
2017-06-24T08:54:36.809Z,1007.64
2017-06-24T08:55:36.747Z,1007.66
2017-06-24T08:56:36.683Z,1007.63
2017-06-24T08:57:36.621Z,1007.66
2017-06-24T08:58:36.557Z,1007.63
2017-06-24T08:59:36.495Z,1007.68
2017-06-24T09:00:36.430Z,1007.66
2017-06-24T09:01:36.368Z,1007.63
2017-06-24T09:02:36.305Z,1007.59
2017-06-24T09:03:36.243Z,1007.65
2017-06-24T09:04:36.178Z,1007.65
2017-06-24T09:05:36.119Z,1007.62
2017-06-24T09:06:36.056Z,1007.62
2017-06-24T09:07:35.989Z,1007.59
2017-06-24T09:08:35.925Z,1007.58
2017-06-24T09:09:35.863Z,1007.54
2017-06-24T09:10:35.800Z,1007.52
2017-06-24T09:11:35.737Z,1007.55
2017-06-24T09:12:35.674Z,1007.5
2017-06-24T09:13:35.611Z,1007.49
2017-06-24T09:14:35.548Z,1007.5
2017-06-24T09:15:35.483Z,1007.49
2017-06-24T09:16:35.422Z,1007.47
2017-06-24T09:17:35.356Z,1007.43
2017-06-24T09:18:35.294Z,1007.44
2017-06-24T09:19:35.231Z,1007.47
2017-06-24T09:20:35.167Z,1007.42
2017-06-24T09:21:35.105Z,1007.44
2017-06-24T09:22:35.041Z,1007.43
2017-06-24T09:23:34.978Z,1007.42
2017-06-24T09:24:34.917Z,1007.43
2017-06-24T09:25:34.853Z,1007.42
2017-06-24T09:26:34.788Z,1007.45
2017-06-24T09:27:34.726Z,1007.44
2017-06-24T09:28:34.662Z,1007.43
2017-06-24T09:29:34.599Z,1007.42
2017-06-24T09:30:34.538Z,1007.39
2017-06-24T09:31:34.473Z,1007.41
2017-06-24T09:32:34.410Z,1007.44
2017-06-24T09:33:34.348Z,1007.52
2017-06-24T09:34:34.285Z,1007.48
2017-06-24T09:35:34.222Z,1007.42
2017-06-24T09:36:34.158Z,1007.44
2017-06-24T09:37:34.094Z,1007.42
2017-06-24T09:38:34.031Z,1007.41
2017-06-24T09:39:33.969Z,1007.4
2017-06-24T09:40:33.904Z,1007.45
2017-06-24T09:41:33.843Z,1007.39
2017-06-24T09:42:33.778Z,1007.39
2017-06-24T09:43:33.717Z,1007.36
2017-06-24T09:44:33.651Z,1007.39
2017-06-24T09:45:33.588Z,1007.34
2017-06-24T09:46:33.527Z,1007.32
2017-06-24T09:47:33.464Z,1007.35
2017-06-24T09:48:33.399Z,1007.33
2017-06-24T09:49:33.337Z,1007.36
2017-06-24T09:50:33.274Z,1007.32
2017-06-24T09:51:33.209Z,1007.31
2017-06-24T09:52:33.146Z,1007.28
2017-06-24T09:53:33.083Z,1007.26
2017-06-24T09:54:33.020Z,1007.31
2017-06-24T09:55:32.956Z,1007.25
2017-06-24T09:56:32.894Z,1007.28
2017-06-24T09:57:32.830Z,1007.34
2017-06-24T09:58:32.767Z,1007.3
2017-06-24T09:59:32.703Z,1007.32
2017-06-24T10:00:32.642Z,1007.3
2017-06-24T10:01:32.577Z,1007.27
2017-06-24T10:02:32.515Z,1007.3
2017-06-24T10:03:32.451Z,1007.3
2017-06-24T10:04:32.389Z,1007.26
2017-06-24T10:05:32.327Z,1007.28
2017-06-24T10:06:32.260Z,1007.27
2017-06-24T10:07:32.198Z,1007.27
2017-06-24T10:08:32.135Z,1007.24
2017-06-24T10:09:32.072Z,1007.26
2017-06-24T10:10:32.110Z,1007.23
2017-06-24T10:11:31.970Z,1007.26
2017-06-24T10:12:31.883Z,1007.25
2017-06-24T10:13:31.819Z,1007.25
2017-06-24T10:14:31.756Z,1007.22
2017-06-24T10:15:31.692Z,1007.23
2017-06-24T10:16:31.630Z,1007.21
2017-06-24T10:17:31.567Z,1007.25
2017-06-24T10:18:31.506Z,1007.27
2017-06-24T10:19:31.441Z,1007.22
2017-06-24T10:20:31.386Z,1007.24
2017-06-24T10:21:31.316Z,1007.2
2017-06-24T10:22:31.251Z,1007.19
2017-06-24T10:23:31.188Z,1007.18
2017-06-24T10:24:31.123Z,1007.18
2017-06-24T10:25:31.061Z,1007.14
2017-06-24T10:26:30.999Z,1007.16
2017-06-24T10:27:30.934Z,1007.17
2017-06-24T10:28:30.870Z,1007.15
2017-06-24T10:29:30.807Z,1007.12
2017-06-24T10:30:30.743Z,1007.17
2017-06-24T10:31:30.681Z,1007.15
2017-06-24T10:32:30.617Z,1007.15
2017-06-24T10:33:30.555Z,1007.15
2017-06-24T10:34:30.492Z,1007.16
2017-06-24T10:35:30.427Z,1007.15
2017-06-24T10:36:30.364Z,1007.16
2017-06-24T10:37:30.301Z,1007.16
2017-06-24T10:38:30.239Z,1007.15
2017-06-24T10:39:30.174Z,1007.16
2017-06-24T10:40:30.113Z,1007.11
2017-06-24T10:41:30.049Z,1007.13
2017-06-24T10:42:29.987Z,1007.1
2017-06-24T10:43:29.921Z,1007.11
2017-06-24T10:44:29.858Z,1007.11
2017-06-24T10:45:29.796Z,1007.11
2017-06-24T10:46:29.731Z,1007.13
2017-06-24T10:47:29.669Z,1007.1
2017-06-24T10:48:29.605Z,1007.1
2017-06-24T10:49:29.543Z,1007.13
2017-06-24T10:50:29.481Z,1007.17
2017-06-24T10:51:29.417Z,1007.12
2017-06-24T10:52:29.353Z,1007.14
2017-06-24T10:53:29.290Z,1007.13
2017-06-24T10:54:29.227Z,1007.15
2017-06-24T10:55:29.164Z,1007.13
2017-06-24T10:56:29.100Z,1007.12
2017-06-24T10:57:29.037Z,1007.13
2017-06-24T10:58:28.974Z,1007.11
2017-06-24T10:59:28.915Z,1007.12
2017-06-24T11:00:28.848Z,1007.08
2017-06-24T11:01:28.784Z,1007.12
2017-06-24T11:02:28.723Z,1007.12
2017-06-24T11:03:28.658Z,1007.13
2017-06-24T11:04:28.595Z,1007.15
2017-06-24T11:05:28.540Z,1007.14
2017-06-24T11:06:28.469Z,1007.14
2017-06-24T11:07:28.405Z,1007.16
2017-06-24T11:08:28.343Z,1007.15
2017-06-24T11:09:28.279Z,1007.12
2017-06-24T11:10:28.217Z,1007.12
2017-06-24T11:11:28.152Z,1007.11
2017-06-24T11:12:28.088Z,1007.07
2017-06-24T11:13:28.031Z,1007.12
2017-06-24T11:14:27.967Z,1007.11
2017-06-24T11:15:27.919Z,1007.15
2017-06-24T11:16:27.836Z,1007.16
2017-06-24T11:17:27.774Z,1007.14
2017-06-24T11:18:27.711Z,1007.16
2017-06-24T11:19:27.647Z,1007.12
2017-06-24T11:20:27.584Z,1007.18
2017-06-24T11:21:27.521Z,1007.14
2017-06-24T11:22:27.458Z,1007.1
2017-06-24T11:23:27.394Z,1007.17
2017-06-24T11:24:27.331Z,1007.17
2017-06-24T11:25:27.268Z,1007.14
2017-06-24T11:26:27.204Z,1007.14
2017-06-24T11:27:27.142Z,1007.17
2017-06-24T11:28:27.076Z,1007.16
2017-06-24T11:29:27.015Z,1007.19
2017-06-24T11:30:26.951Z,1007.16
2017-06-24T11:31:26.890Z,1007.22
2017-06-24T11:32:26.825Z,1007.21
2017-06-24T11:33:26.761Z,1007.21
2017-06-24T11:34:26.697Z,1007.23
2017-06-24T11:35:26.636Z,1007.31
2017-06-24T11:36:26.571Z,1007.29
2017-06-24T11:37:26.507Z,1007.31
2017-06-24T11:38:26.444Z,1007.31
2017-06-24T11:39:26.381Z,1007.3
2017-06-24T11:40:26.318Z,1007.31
2017-06-24T11:41:26.255Z,1007.23
2017-06-24T11:42:26.192Z,1007.22
2017-06-24T11:43:26.128Z,1007.22
2017-06-24T11:44:26.065Z,1007.22
2017-06-24T11:45:26.006Z,1007.17
2017-06-24T11:46:25.940Z,1007.18
2017-06-24T11:47:25.876Z,1007.19
2017-06-24T11:48:25.811Z,1007.18
2017-06-24T11:49:25.750Z,1007.21
2017-06-24T11:50:25.685Z,1007.16
2017-06-24T11:51:25.623Z,1007.16
2017-06-24T11:52:25.558Z,1007.16
2017-06-24T11:53:25.496Z,1007.17
2017-06-24T11:54:25.433Z,1007.2
2017-06-24T11:55:25.371Z,1007.21
2017-06-24T11:56:25.312Z,1007.22
2017-06-24T11:57:25.244Z,1007.24
2017-06-24T11:58:25.180Z,1007.22
2017-06-24T11:59:25.117Z,1007.22
2017-06-24T12:00:25.055Z,1007.23
2017-06-24T12:01:24.992Z,1007.29
2017-06-24T12:02:24.928Z,1007.31
2017-06-24T12:03:24.864Z,1007.31
2017-06-24T12:04:24.800Z,1007.33
2017-06-24T12:05:24.739Z,1007.26
2017-06-24T12:06:24.675Z,1007.25
2017-06-24T12:07:24.612Z,1007.28
2017-06-24T12:08:24.549Z,1007.2
2017-06-24T12:09:24.485Z,1007.25